MyTimes logo

TIMES

Webb Imagery

27/01/2013
Channel Challenge
550m Swim / 2.0km Run

(Click on competitor name to view personalised results)

Name
Race #
Category
Time
(h:mm:ss)
Avg Speed
km/hr
OAll
Place
Cat
Place
ANDERSON Ben#654Junior Male0:11:26"13.4 " 11
BONDARENKO Sascha#161Senior Male0:11:32"13.3 " 21
BUSCHKUEHL Nathan#26Senior Male0:11:32"13.3 " 32
RHODES Jamie#102Senior Male0:11:33"13.2 " 43
PLANT Luke#57Senior Male0:12:34"12.2 " 54
ROWE Mark#148Senior Male0:12:40"12.1 " 65
LE BROCQ Bill#641Junior Male0:12:55"11.8 " 72
SMITH Ryan#115Senior Male0:13:00"11.8 " 86
WILLIAMS Max#639Junior Male0:13:03"11.7 " 93
VAN AGTMAAL Beau#733Junior Male0:13:05"11.7 " 104
SQUIRES Richard#36Senior Male0:13:12"11.6 " 117
DISTON Ashlee#394Junior Female0:13:14"11.6 " 121
GUILLE Tim#1Senior Male0:13:15"11.5 " 138
BUTT Chloe#351Senior Female0:13:17"11.5 " 141
FLEISNER Rob#667Male 50+0:13:26"11.4 " 151
DALLINGER Andrew#94Senior Male0:13:34"11.3 " 169
MANTEIT Michael#753Junior Male0:13:34"11.3 " 175
JUDD Alex#66Senior Male0:13:36"11.2 " 1810
BUGS Matthew#98Senior Male0:13:39"11.2 " 1911
ARMSTRONG Emma#322Senior Female0:13:41"11.2 " 202
DEAYTON Daniel#34Senior Male0:13:42"11.2 " 2112
WACHTER Aurel#64340-49 Male0:13:52"11.0 " 221
SMART Graham#59Senior Male0:13:55"11.0 " 2313
GALBRAITH Dana#648Male 50+0:14:00"10.9 " 242
HARRISON Hamish#162Senior Male0:14:03"10.9 " 2514
JANES Matt#71140-49 Male0:14:03"10.9 " 262
BIBBY Anthony#72640-49 Male0:14:03"10.9 " 273
FYFIELD Sally#371Senior Female0:14:08"10.8 " 283
BOND Marcus#42Senior Male0:14:09"10.8 " 2915
TILLEY Justin#90Senior Male0:14:10"10.8 " 3016
ROLLAND Thierry#67740-49 Male0:14:12"10.8 " 314
BUTLER Laura#357Junior Female0:14:13"10.8 " 322
DISTON Mitchell#686Junior Male0:14:13"10.8 " 336
JONES Sean#706Junior Male0:14:15"10.7 " 347
BILL Greg#66540-49 Male0:14:17"10.7 " 355
WOODWARD Lee#29Senior Male0:14:21"10.7 " 3617
HANLEY Philip#713Male 50+0:14:22"10.6 " 373
VANDERSTEEN Bevan#72440-49 Male0:14:23"10.6 " 386
CORBET Jim#67240-49 Male0:14:24"10.6 " 397
GOWAN Mike#49Senior Male0:14:30"10.6 " 4018
LUND Sarah#422Senior Female0:14:31"10.5 " 414
LUCAS Aaron#634Junior Male0:14:33"10.5 " 428
O'HALLORAN Nick#22Senior Male0:14:36"10.5 " 4319
BANKS Jamie#76Senior Male0:14:38"10.5 " 4420
BUSCHKUEHL David#73540-49 Male0:14:38"10.5 " 458
MAYERS Stuart#119Senior Male0:14:39"10.4 " 4621
SUNDERLAND Andrew#69Senior Male0:14:40"10.4 " 4722
MONAGHAN Matt#28Senior Male0:14:45"10.4 " 4823
CARTER Lachlan#78Senior Male0:14:46"10.4 " 4924
DESSENT Tiger#71240-49 Male0:14:46"10.4 " 509
ONLEY Thomas#73Senior Male0:14:48"10.3 " 5125
FRANKLIN Bret#108Senior Male0:14:50"10.3 " 5226
HOLMES Ben#93Senior Male0:14:51"10.3 " 5327
DONALDSON Mark#158Senior Male0:14:54"10.3 " 5428
HUMPHRIS Stephen#40Senior Male0:14:59"10.2 " 5529
BLYTH Chris#66640-49 Male0:14:59"10.2 " 5610
TURNER Georgia#346Junior Female0:15:03"10.2 " 573
MATTHEWS Jack#75Senior Male0:15:05"10.1 " 5830
LEWIS Simon#85Senior Male0:15:06"10.1 " 5931
BLEKIS Daniel#128Senior Male0:15:08"10.1 " 6032
HATL Walter#751Junior Male0:15:08"10.1 " 619
PIEPER Daniel#152Senior Male0:15:12"10.1 " 6233
PLUCK Neil#43Senior Male0:15:12"10.1 " 6334
EVANS Brad#73240-49 Male0:15:12"10.1 " 6411
HETERSBRUEG Andre#71Senior Male0:15:14"10.0 " 6535
BAGUILEY Malcolm#157Senior Male0:15:15"10.0 " 6636
LOCKING Becky#326Senior Female0:15:16"10.0 " 675
GORDON Scott#126Senior Male0:15:18"10.0 " 6837
DEMKO Marcus#62Senior Male0:15:23"9.9 " 6938
ADAMS Jarrod#72840-49 Male0:15:25"9.9 " 7012
YUSKO Bill#698Male 50+0:15:25"9.9 " 714
CANN Lara#308Senior Female0:15:27"9.9 " 726
TOSH Liz#408Senior Female0:15:30"9.9 " 737
MCLENNAN Rhett#55Senior Male0:15:31"9.9 " 7439
ROBERTSON Dan#51Senior Male0:15:33"9.8 " 7540
JAKOBI Dean#71740-49 Male0:15:34"9.8 " 7613
BERHSIN Brianna#406Junior Female0:15:35"9.8 " 774
EDWARDS Molly#427Junior Female0:15:38"9.8 " 785
CICCONE Joseph#101Senior Male0:15:39"9.8 " 7941
COMMINS Alex#72740-49 Male0:15:39"9.8 " 8014
ELLIS Chris#64Senior Male0:15:40"9.8 " 8142
BARRY Joel#30Senior Male0:15:41"9.8 " 8243
HUGHES Hilary#350Senior Female0:15:42"9.7 " 838
CREER Andrew#63040-49 Male0:15:43"9.7 " 8415
CHISHOLM Andy#58Senior Male0:15:44"9.7 " 8544
FALLOON Darren#74740-49 Male0:15:44"9.7 " 8616
WHITE Cameron#47Senior Male0:15:45"9.7 " 8745
SULLIVAN Matthew#5Senior Male0:15:47"9.7 " 8846
AITKEN Harry#61Senior Male0:15:48"9.7 " 8947
PROSSER Robert#131Senior Male0:15:48"9.7 " 9048
CARSONS Sarah#397Senior Female0:15:49"9.7 " 919
THOMPSON Travis#67Senior Male0:15:49"9.7 " 9249
LINFORD Cameron#143Senior Male0:15:51"9.7 " 9350
JOHNSTON Richard#64240-49 Male0:15:51"9.7 " 9417
MURPHY Justin#134Senior Male0:15:56"9.6 " 9551
CROWE Susan#435Senior Female0:15:57"9.6 " 9610
HARRIS Simon#32Senior Male0:15:58"9.6 " 9752
FINNIS Matthew#133Senior Male0:15:58"9.6 " 9853
BENDTSEN Katrina#325Junior Female0:15:59"9.6 " 996
HAMILTON Duncan#109Senior Male0:16:00"9.6 " 10054
SALTON Marcus#60Senior Male0:16:00"9.6 " 10155
HOARE Shaun#150Senior Male0:16:01"9.6 " 10256
MURPHY Victor#68Senior Male0:16:01"9.6 " 10357
VYVERBERG Adam#121Senior Male0:16:04"9.5 " 10458
RIELLY Debie#33840-49 Female0:16:05"9.5 " 1051
JAMES Zachary#100Senior Male0:16:06"9.5 " 10659
HELLEMA Joshua#60840-49 Male0:16:06"9.5 " 10718
LEA Michael#84Senior Male0:16:07"9.5 " 10860
STINEAR Tim#75540-49 Male0:16:08"9.5 " 10919
FULTON Chris#63340-49 Male0:16:08"9.5 " 11020
BERHSIN John#700Male 50+0:16:10"9.5 " 1115
HARRIS Kris#48Senior Male0:16:11"9.5 " 11261
DYKES Chris#142Senior Male0:16:15"9.4 " 11362
PRYOR Anthony#160Senior Male0:16:15"9.4 " 11463
DALLINGER Chris#81Senior Male0:16:17"9.4 " 11564
O'KEEFFE Louise#319Senior Female0:16:17"9.4 " 11611
HERBERT Duncan#61240-49 Male0:16:17"9.4 " 11721
LENNE Heath#15Senior Male0:16:22"9.3 " 11865
SCHRODER Jack#761Junior Male0:16:26"9.3 " 11910
BORN Christian#13Senior Male0:16:27"9.3 " 12066
TILLEY Derryn#125Senior Male0:16:28"9.3 " 12167
KONIG Paul#7Senior Male0:16:29"9.3 " 12268
DIGGINS Stephanie#383Senior Female0:16:29"9.3 " 12312
PRATT Joanne#462Senior Female0:16:33"9.2 " 12413
WILLS Darren#68240-49 Male0:16:33"9.2 " 12522
CLOSE Jason#67840-49 Male0:16:35"9.2 " 12623
THOMAS Brodie#120Senior Male0:16:37"9.2 " 12769
LIDDELL Maryanne#401Senior Female0:16:37"9.2 " 12814
IRWIN Alexa#436Senior Female0:16:38"9.2 " 12915
FISHER Surrey#684Junior Male0:16:38"9.2 " 13011
MORRIS Matthew#97Senior Male0:16:39"9.2 " 13170
PAINTER Rachael#464Senior Female0:16:39"9.2 " 13216
MINTER Kris#56Senior Male0:16:40"9.2 " 13371
SMITH Michael#72240-49 Male0:16:41"9.2 " 13424
OLSEN Andrea#37840-49 Female0:16:42"9.2 " 1352
TURNER Peter#636Male 50+0:16:42"9.2 " 1366
WEBB Brendon#80Senior Male0:16:43"9.2 " 13772
WESTLAKE Emma#437Senior Female0:16:45"9.1 " 13817
MACDONALD Warren#64540-49 Male0:16:45"9.1 " 13925
CARROLL Steve#6Senior Male0:16:46"9.1 " 14073
HARBINSON Yvette#431Senior Female0:16:46"9.1 " 14118
WATSON Russell#63540-49 Male0:16:46"9.1 " 14226
DODDS Mitch#720Junior Male0:16:47"9.1 " 14312
ROSS Matthew#18Senior Male0:16:49"9.1 " 14474
LIVINGS Ricky#88Senior Male0:16:50"9.1 " 14575
BRADEN Mick#64440-49 Male0:16:51"9.1 " 14627
ROBERT Simon#146Senior Male0:16:52"9.1 " 14776
HELLEMA Ben#19Senior Male0:16:52"9.1 " 14877
PAYNE Simon#67340-49 Male0:16:52"9.1 " 14928
TURNER Olivia#347Junior Female0:16:53"9.1 " 1507
JONES Mark#70740-49 Male0:16:54"9.1 " 15129
MARSHALL Luke#82Senior Male0:16:56"9.0 " 15278
HANCOX Merryn#35240-49 Female0:16:57"9.0 " 1533
ROWE Michael#75440-49 Male0:16:58"9.0 " 15430
KIRBY Phillip#70440-49 Male0:16:58"9.0 " 15531
FISHER Josh#23Senior Male0:16:59"9.0 " 15679
THWAITES Karl#75240-49 Male0:16:59"9.0 " 15732
JUDD Gary#710Male 50+0:16:59"9.0 " 1587
CURTIS Yarran#725Junior Male0:17:01"9.0 " 15913
RAUDON Richard#46Senior Male0:17:02"9.0 " 16080
FISHER Kevin#683Male 50+0:17:02"9.0 " 1618
ANDREOLA Declan#702Junior Male0:17:03"9.0 " 16214
BODLEY Matthew#135Senior Male0:17:04"9.0 " 16381
CHIVERS Luke#144Senior Male0:17:05"9.0 " 16482
GALBRAITH Lynne#37040-49 Female0:17:05"9.0 " 1654
BAMBERY Luke#159Senior Male0:17:07"8.9 " 16683
BYRNE Tim#50Senior Male0:17:08"8.9 " 16784
GOLDIE Tony#76340-49 Male0:17:12"8.9 " 16833
SMITH Aaron#114Senior Male0:17:15"8.9 " 16985
CURTIS Brad#71840-49 Male0:17:21"8.8 " 17034
WOODHOUSE Christina#393Senior Female0:17:22"8.8 " 17119
BOWERS Erin#340Senior Female0:17:22"8.8 " 17220
LEGG Martin#66040-49 Male0:17:29"8.8 " 17335
ARAZNY Wayne#61740-49 Male0:17:30"8.7 " 17436
LOCKWOOD Ben#65940-49 Male0:17:31"8.7 " 17537
SAUNDERS Allan#721Male 50+0:17:31"8.7 " 1769
PRITCHARD Tim#3Senior Male0:17:32"8.7 " 17786
YOUNG Scott#123Senior Male0:17:32"8.7 " 17887
LEVERSHA David#611Male 50+0:17:33"8.7 " 17910
GARDNER Liz#47140-49 Female0:17:34"8.7 " 1805
HICKS Simon#66340-49 Male0:17:34"8.7 " 18138
GRIFFITHS Kylie#38240-49 Female0:17:35"8.7 " 1826
VANDERVALK Shane#106Senior Male0:17:38"8.7 " 18388
LANGFORD Dean#697Male 50+0:17:39"8.7 " 18411
BORN Daniel#14Senior Male0:17:40"8.7 " 18589
DUNN Sarah#344Senior Female0:17:40"8.7 " 18621
WHITLA James#60640-49 Male0:17:41"8.7 " 18739
CANN James#91Senior Male0:17:42"8.6 " 18890
ANGUS Kirsty#358Senior Female0:17:42"8.6 " 18922
O'DONOHUE Jacob#693Junior Male0:17:42"8.6 " 19015
HERRINGTON Cameron#71540-49 Male0:17:43"8.6 " 19140
ROWE Joel#21Senior Male0:17:44"8.6 " 19291
CAMPBELL Hamish#156Senior Male0:17:44"8.6 " 19392
TUFF Stephen#89Senior Male0:17:45"8.6 " 19493
MORGAN Briony#419Senior Female0:17:45"8.6 " 19523
MONTGOMERY Kieran#16Senior Male0:17:46"8.6 " 19694
ROWE Jonathon#75640-49 Male0:17:46"8.6 " 19741
JOHNSON Eric#112Senior Male0:17:47"8.6 " 19895
CHANDLER Mark#92Senior Male0:17:48"8.6 " 19996
MAIER Adrian#122Senior Male0:17:48"8.6 " 20097
MICHAEL Nick#39Senior Male0:17:49"8.6 " 20198
WILLIAMS Tommy#749Junior Male0:17:53"8.6 " 20216
BARTLETT Lee#52Senior Male0:17:54"8.5 " 20399
WILLIAMSON John#66240-49 Male0:17:57"8.5 " 20442
BERRY Tim#103Senior Male0:17:59"8.5 " 205100
DALVEAN Trenton#33Senior Male0:18:00"8.5 " 206101
TAYLOR Jack#740Junior Male0:18:00"8.5 " 20717
HOLUB Brittany#420Junior Female0:18:01"8.5 " 2088
WATERSON David#113Senior Male0:18:02"8.5 " 209102
MAGUINNESS Sam#38Senior Male0:18:05"8.5 " 210103
BRYDEN Stewart#75740-49 Male0:18:05"8.5 " 21143
FRASER Jodie#407Senior Female0:18:07"8.4 " 21224
DAFF Geoff#664Male 50+0:18:07"8.4 " 21312
OWEN Paul#65640-49 Male0:18:07"8.4 " 21444
GUPPY Isaac#110Senior Male0:18:09"8.4 " 215104
GILLILAND Paula#361Senior Female0:18:11"8.4 " 21625
MOSELEY Tessa#321Senior Female0:18:13"8.4 " 21726
HADAWAY Emma#306Senior Female0:18:14"8.4 " 21827
PHELAN Glenn#64640-49 Male0:18:14"8.4 " 21945
GRANT Neil#54Senior Male0:18:15"8.4 " 220105
DISTON Mort#685Male 50+0:18:17"8.4 " 22113
JOHNSTONNE Chris#69440-49 Male0:18:17"8.4 " 22246
YOUNG Ben#139Senior Male0:18:18"8.4 " 223106
DODDS Janine#42940-49 Female0:18:18"8.4 " 2247
LANGFIELD Imigen#402Junior Female0:18:19"8.4 " 2259
MCDONALD Kellie#337Senior Female0:18:19"8.4 " 22628
EMERY Mick#615Male 50+0:18:20"8.3 " 22714
DOHERTS Ashley#149Senior Male0:18:21"8.3 " 228107
STINEAR Gabrielle#467Junior Female0:18:21"8.3 " 22910
HAYNE Rodney#9Senior Male0:18:22"8.3 " 230108
COBURN Olivia#379Senior Female0:18:22"8.3 " 23129
POULTON Andrew#65240-49 Male0:18:22"8.3 " 23247
PEACOCK Daniel#95Senior Male0:18:23"8.3 " 233109
STELZER Tim#83Senior Male0:18:26"8.3 " 234110
TRANTER Andrew#63Senior Male0:18:27"8.3 " 235111
HAMILTON Aidan#2Senior Male0:18:29"8.3 " 236112
BENNETT Brody#153Senior Male0:18:30"8.3 " 237113
SCOTT Hannah#458Junior Female0:18:30"8.3 " 23811
HYMPHREY Kirk#70Senior Male0:18:33"8.2 " 239114
GOWAN Nat#353Senior Female0:18:36"8.2 " 24030
HORNSBY Tony#86Senior Male0:18:39"8.2 " 241115
SCICLUNA Todd#10Senior Male0:18:39"8.2 " 242116
ALDERSON Allan#716Male 50+0:18:39"8.2 " 24315
BUTTON Georgina#318Junior Female0:18:40"8.2 " 24412
WILLIAMS Ian#63840-49 Male0:18:40"8.2 " 24548
CHAPMAN Wayne#105Senior Male0:18:43"8.2 " 246117
JOHNSON Ray#62140-49 Male0:18:44"8.2 " 24749
O'DONOHUE Mark#692Male 50+0:18:44"8.2 " 24816
FLEISNER Paul#631Male 50+0:18:44"8.2 " 24917
THWAITES Jack#154Senior Male0:18:47"8.1 " 250118
LIVINGS Natalie#390Senior Female0:18:48"8.1 " 25131
WEBBER Neil#671Male 50+0:18:49"8.1 " 25218
HALL Ben#155Senior Male0:18:50"8.1 " 253119
MALAN Kelsey#446Senior Female0:18:53"8.1 " 25432
LEA Trevor#655Male 50+0:18:54"8.1 " 25519
BAXTER Virginia#38440-49 Female0:18:55"8.1 " 2568
DODD Jennifer#454Female 50+0:18:57"8.1 " 2571
FINNIS D'arne#449Senior Female0:18:57"8.1 " 25833
HALL Danni#354Senior Female0:18:57"8.1 " 25934
KIRBY Nick#703Junior Male0:18:58"8.1 " 26018
FARMER LUCY#442Senior Female0:19:00"8.1 " 26135
NICHOLAS Davin#117Senior Male0:19:01"8.0 " 262120
VIRTUE Melinda#45940-49 Female0:19:02"8.0 " 2639
LAMB Simon#111Senior Male0:19:03"8.0 " 264121
VAN DER HEYDEN Natalie#323Senior Female0:19:03"8.0 " 26536
BERRY Angela#380Senior Female0:19:05"8.0 " 26637
CORCORAN Samantha#46140-49 Female0:19:05"8.0 " 26710
HOOLYAOK Sophie#428Junior Female0:19:06"8.0 " 26813
DIBBEN Tony#62540-49 Male0:19:07"8.0 " 26950
PARLE Anna#331Senior Female0:19:08"8.0 " 27038
LEVERSHA Lyn#320Female 50+0:19:09"8.0 " 2712
BORN Tim#61040-49 Male0:19:10"8.0 " 27251
GEORGIA Murzy#433Senior Female0:19:11"8.0 " 27339
HIBBLE Jenny#305Female 50+0:19:12"8.0 " 2743
MILNES Jacqui#348Female 50+0:19:12"8.0 " 2754
CORNFU Mark#73140-49 Male0:19:12"8.0 " 27652
WILLIAMS Stephen#44Senior Male0:19:14"8.0 " 277122
BESWICK Shannon#11Senior Male0:19:15"7.9 " 278123
SZEITLI Justine#400Senior Female0:19:16"7.9 " 27940
BUCHANAN Kate#307Senior Female0:19:17"7.9 " 28041
LUCK Jarrod#61440-49 Male0:19:18"7.9 " 28153
MCINTOSH Darren#60740-49 Male0:19:18"7.9 " 28254
BRETT Shelley#366Senior Female0:19:19"7.9 " 28342
STEPHENS Janice#317Female 50+0:19:19"7.9 " 2845
ORSINI Raff#729Male 50+0:19:19"7.9 " 28520
GOLDIE Lauren#472Senior Female0:19:23"7.9 " 28643
CARTNER Alana#417Senior Female0:19:24"7.9 " 28744
MIRRA Yuta#147Senior Male0:19:26"7.9 " 288124
KIRBY Ellie#412Junior Female0:19:27"7.9 " 28914
MALIOS Todd#76040-49 Male0:19:27"7.9 " 29055
DIXON Amanda#367Senior Female0:19:30"7.8 " 29145
JEMMES Alycia#452Senior Female0:19:30"7.8 " 29246
VAUDREY Philip#140Senior Male0:19:31"7.8 " 293125
MATTHEWS Robert#618Male 50+0:19:32"7.8 " 29421
FLEMING Luke#127Senior Male0:19:35"7.8 " 295126
COUSENS Sarre#301Senior Female0:19:37"7.8 " 29647
DE CARLO Pier#730Male 50+0:19:38"7.8 " 29722
JOHNSTONE Anthony#69540-49 Male0:19:39"7.8 " 29856
MARSHALL Sarah#34340-49 Female0:19:40"7.8 " 29911
HUNT Greg#60240-49 Male0:19:40"7.8 " 30057
JOHNSON Travis#25Senior Male0:19:43"7.8 " 301127
PHILLIPS Mathew#79Senior Male0:19:43"7.8 " 302128
ZIMMERMAN Kirrily#356Senior Female0:19:43"7.8 " 30348
PATKIN Kate#448Senior Female0:19:45"7.7 " 30449
REIDY Andrew#132Senior Male0:19:47"7.7 " 305129
BROPHY Clare#309Female 50+0:19:49"7.7 " 3066
BENSTEAD David#609Male 50+0:19:49"7.7 " 30723
PATULLO Josh#741Junior Male0:19:51"7.7 " 30819
MANNING John#87Senior Male0:19:53"7.7 " 309130
BEHRE Michaela#312Junior Female0:19:56"7.7 " 31015
WARING Colin#74640-49 Male0:19:58"7.7 " 31158
CHASTON Pete#669Male 50+0:19:59"7.7 " 31224
ARNAUD Valerie#45640-49 Female0:20:00"7.6 " 31312
CVETKOVSKI David#68040-49 Male0:20:03"7.6 " 31459
STELZER Hermann#676Male 50+0:20:04"7.6 " 31525
DYNON Paul#68740-49 Male0:20:04"7.6 " 31660
HARBISON Natascha#36340-49 Female0:20:05"7.6 " 31713
TURNER Bridget#403Junior Female0:20:06"7.6 " 31816
CREAN Peter#603Male 50+0:20:08"7.6 " 31926
MORRISON Kerry#463Female 50+0:20:09"7.6 " 3207
SCOTT Louise#360Senior Female0:20:12"7.6 " 32150
BEAUMONT Ashley#124Senior Male0:20:13"7.6 " 322131
SMITH Tara#333Senior Female0:20:14"7.6 " 32351
SHEPPARD Sam#130Senior Male0:20:15"7.6 " 324132
HONEY Phoebe#368Senior Female0:20:20"7.5 " 32552
NICHOLSON Garry#640Male 50+0:20:22"7.5 " 32627
KIRBY Emma#41340-49 Female0:20:24"7.5 " 32714
MC CASKER Jessica#426Senior Female0:20:24"7.5 " 32853
STONE Craig#70840-49 Male0:20:28"7.5 " 32961
THEK Kylie#377Senior Female0:20:28"7.5 " 33054
SKIDMORE Timothy#96Senior Male0:20:29"7.5 " 331133
LUTTICK Angela#362Senior Female0:20:29"7.5 " 33255
LIVINGSTONE Kate#470Senior Female0:20:42"7.4 " 33356
WHITESIDE Matt#118Senior Male0:20:43"7.4 " 334134
CICCONE Daniel#709Junior Male0:20:43"7.4 " 33520
WRIGHT Anne#34240-49 Female0:20:44"7.4 " 33615
POWERS Cara#385Senior Female0:20:45"7.4 " 33757
LENNE Aimee#447Senior Female0:20:48"7.4 " 33858
SHAW Melanie#395Senior Female0:20:52"7.3 " 33959
SKIDMORE Peter#699Male 50+0:20:52"7.3 " 34028
MOUNTJOY Libby#345Senior Female0:20:53"7.3 " 34160
MC DONALD Gordon#661Male 50+0:20:54"7.3 " 34229
SQUIRES Stewart#623Male 50+0:20:54"7.3 " 34330
CAIN Greg#736Male 50+0:20:55"7.3 " 34431
DEGARIS Ric#619Male 50+0:20:59"7.3 " 34532
COLE Nick#69040-49 Male0:20:59"7.3 " 34662
PICKLES Ali#365Senior Female0:21:00"7.3 " 34761
HOLLINS Jenny#35540-49 Female0:21:05"7.3 " 34816
MITCHELL Ben#145Senior Male0:21:13"7.2 " 349135
ADAMS Murray#657Male 50+0:21:21"7.2 " 35033
DITCHFIELD Kristina#35940-49 Female0:21:26"7.1 " 35117
POLLARD-VIRTUE Caleb#739Junior Male0:21:27"7.1 " 35221
BAILEY Annie#335Female 50+0:21:28"7.1 " 3538
LYONS Rachel#349Senior Female0:21:29"7.1 " 35462
CARTER Verena#375Senior Female0:21:30"7.1 " 35563
MC CLELLAND Laura#392Senior Female0:21:30"7.1 " 35664
LANGEVELD Peter#66840-49 Male0:21:31"7.1 " 35763
HERRRINGTON Suzie#40440-49 Female0:21:32"7.1 " 35818
MICHAEL Neil#68140-49 Male0:21:32"7.1 " 35964
CAMPON Samantha#469Senior Female0:21:34"7.1 " 36065
DWYER Deanne#44140-49 Female0:21:34"7.1 " 36119
WEBBER Simone#38140-49 Female0:21:35"7.1 " 36220
OLIVER Jeffrey#675Male 50+0:21:42"7.1 " 36334
EGAN Holly#389Junior Female0:21:48"7.0 " 36417
CULLEN Richard#61340-49 Male0:21:49"7.0 " 36565
WILLIAMS Estelle#444Senior Female0:21:49"7.0 " 36666
JAMES Gideon#41Senior Male0:21:50"7.0 " 367136
PALUK Sarah#396Senior Female0:21:50"7.0 " 36867
LENORD Braut#137Senior Male0:21:51"7.0 " 369137
VIRTUE Robert#74440-49 Male0:21:52"7.0 " 37066
LEA Edwina#372Senior Female0:21:54"7.0 " 37168
SCOTT David#53Senior Male0:21:58"7.0 " 372138
CALLAGHAN Grant#45Senior Male0:21:58"7.0 " 373139
DOUGLAS Steve#650Male 50+0:22:01"6.9 " 37435
MUIR Anthony#759Male 50+0:22:02"6.9 " 37536
OHLSSON Magnus#69140-49 Male0:22:03"6.9 " 37667
PEZZIMENTI Fred#651Male 50+0:22:05"6.9 " 37737
STINEAR Melinda#46840-49 Female0:22:06"6.9 " 37821
LUNT Julie#328Senior Female0:22:14"6.9 " 37969
MARSHALL Gail#387Senior Female0:22:18"6.9 " 38070
VITUE Blade#738Junior Male0:22:21"6.8 " 38122
BROPHY David#605Male 50+0:22:23"6.8 " 38238
ANDERSON Lisa#31640-49 Female0:22:24"6.8 " 38322
MCGENNISKEN Kerry#364Senior Female0:22:27"6.8 " 38471
PAYNE Kevin#67040-49 Male0:22:30"6.8 " 38568
SPITERI Maverick#637Male 50+0:22:31"6.8 " 38639
POTTER Aaron#31Senior Male0:22:32"6.8 " 387140
WRIGHT Phil#745Male 50+0:22:33"6.8 " 38840
HARDMAN Gill#329Female 50+0:22:38"6.8 " 3899
GOODE Tom#622Male 50+0:22:40"6.7 " 39041
DALLINGER Brian#689Male 50+0:22:41"6.7 " 39142
HOLLYOAK Phil#71940-49 Male0:22:41"6.7 " 39269
MICHELE Orr#31440-49 Female0:22:43"6.7 " 39323
WATSON Tessa#457Junior Female0:22:47"6.7 " 39418
MARSHALL Kerri#388Senior Female0:22:48"6.7 " 39572
COUSINS Richard#604Male 50+0:22:49"6.7 " 39643
STEPHENS Ron#679Male 50+0:22:50"6.7 " 39744
VIRTUE Jacob#743Junior Male0:22:55"6.7 " 39823
BOWKER Colin#75840-49 Male0:23:01"6.6 " 39970
ADKINS Susan#31540-49 Female0:23:05"6.6 " 40024
SMITH Rachel#41440-49 Female0:23:07"6.6 " 40125
EGAN Deb#415Female 50+0:23:16"6.6 " 40210
HELLEMA Daniel#12Senior Male0:23:24"6.5 " 403141
MOREIRA Emily#339Senior Female0:23:25"6.5 " 40473
ANGLIM Bernard#653Male 50+0:23:38"6.5 " 40545
HOSKING Robert#750Male 50+0:23:46"6.4 " 40646
JONES Danene#453Senior Female0:23:50"6.4 " 40774
GOURLEY Bronwen#332Senior Female0:23:51"6.4 " 40875
WILLIAMS Colleen#37440-49 Female0:23:55"6.4 " 40926
LAWRY Peter#627Male 50+0:23:58"6.4 " 41047
RICE Ian#723Male 50+0:24:03"6.4 " 41148
O'HALLARAN Allison#41840-49 Female0:24:17"6.3 " 41227
MOULD Annie#327Senior Female0:24:20"6.3 " 41376
THOMAS Julie#455Female 50+0:24:21"6.3 " 41411
EVANS William#734Male 50+0:24:21"6.3 " 41549
CUTHBERTSON Wynonna#466Senior Female0:24:26"6.3 " 41677
HUTCHESSON Damian#62640-49 Male0:24:27"6.3 " 41771
ANDREOLA Judy#41140-49 Female0:24:40"6.2 " 41828
CLEELAND Philippa#42340-49 Female0:25:11"6.1 " 41929
LONGEVELD Fiona#37640-49 Female0:25:32"6.0 " 42030
ABRAHAMSON Marcus#129Senior Male0:25:34"6.0 " 421142
CLEELAND Mike#714Male 50+0:25:43"5.9 " 42250
DIAMOND Michael#44040-49 Female0:25:44"5.9 " 42331
HAYNE Sue#336Female 50+0:25:45"5.9 " 42412
NICHOLSON Ron#601Male 50+0:25:50"5.9 " 42551
SMITH Tim#138Senior Male0:25:51"5.9 " 426143
CHUDIAK Matthew#151Senior Male0:25:55"5.9 " 427144
CHAMBERS Ron#616Male 50+0:25:58"5.9 " 42852
WHITE Stephen#62040-49 Male0:26:07"5.9 " 42972
WATSON Richard#74240-49 Male0:26:33"5.8 " 43073
DE CARLO Mary-Ann#439Female 50+0:27:01"5.7 " 43113
GRANT Ian#64740-49 Male0:27:51"5.5 " 43274
COOPER Paul#64940-49 Male0:28:09"5.4 " 43375
O'DONOHUE Lesley#39940-49 Female0:28:35"5.4 " 43432
WRIGHT Steve#460Female 50+0:28:57"5.3 " 43514
DOWNWARD Dylan#674Junior Male0:29:02"5.3 " 43624
OATS Nicolas#658Male 50+0:29:35"5.2 " 43753
O'KEEFE Kevin#705Male 50+0:29:40"5.2 " 43854
DIXON Melanie#313Senior Female0:29:52"5.1 " 43978
WILLIS Eddy#465Female 50+0:29:58"5.1 " 44015
DRENNON Amanda#438Senior Female0:30:10"5.1 " 44179
ROSENZWEY Melanie#39840-49 Female0:30:29"5.0 " 44233
SENDECKYJ Joyce#424Female 50+0:31:45"4.8 " 44316
COLLINS Jan#373Female 50+0:32:01"4.8 " 44417
HORROCKS Mark#696Male 50+0:32:11"4.8 " 44555
DAVEY Elizabeth#443Female 50+0:32:53"4.7 " 44618
WILLIAMS Carly#425Senior Female0:33:49"4.5 " 44780
JOHNSON Christine#39140-49 Female0:35:00"4.4 " 44834
WALKER Christine#405Female 50+0:35:03"4.4 " 44919
KONOGOURIS Earlene#430Female 50+0:35:34"4.3 " 45020
BYRNE Pam#330Female 50+0:38:23"4.0 " 45121